Houlton International Airport Houlton US
ICAO: KHUL
IATA: HUL
Category: Medium
Scheduled Services: No

Elevation: 489 ft
TransAlt. 18000 ft.

Airport Communications:
ASOS:132.025
BOSTON CNTR:120.25
BANGOR RDO:122.2
CTAF/UNICOM:122.8

KHUL Zoom In..

If you have problems with the map follow the link
https://www.worldairports.se/pages/airport.php?
ICAO=KHUL

Runways:

(A) RW 01 length 2700 ft width 60 ft
---- / hdg 10

(B) RW 05 length 5015 ft width 100 ft
---- / hdg 49

(C) RW 19 length 2700 ft width 60 ft
---- / hdg 190

(D) RW 23 length 5015 ft width 100 ft
---- / hdg 229

Location; KHUL
Day. 19 / Time. 12.53 Zulu
* Altimeter: 30.17
* Temperature: -14° c. -6.8°f.
* Wind from: 000° Speed 00 kn.
Dewpoint: -15° c.
Visibility: 8 Statute Miles.
Clouds: Overcast 8000 ft.

KHUL 191253Z AUTO 00000KT 8SM OVC080 M14/M15 A3017 RMK AO2 SLP230 T11391150


Wind - Calm.

 
 
jpsmedia.com for Web Design worldairports.se 2018   terms of use